sensor_id;sensor_type;location;lat;lon;timestamp;temperature;humidity
56478;DHT22;42382;53.210;5.772;2022-11-21T00:00:53;2.50;83.90
56478;DHT22;42382;53.210;5.772;2022-11-21T00:03:19;2.50;83.90
56478;DHT22;42382;53.210;5.772;2022-11-21T00:05:48;2.60;84.00
56478;DHT22;42382;53.210;5.772;2022-11-21T00:08:16;2.60;84.00
56478;DHT22;42382;53.210;5.772;2022-11-21T00:10:42;2.50;84.00
56478;DHT22;42382;53.210;5.772;2022-11-21T00:13:13;2.60;84.00
56478;DHT22;42382;53.210;5.772;2022-11-21T00:15:38;2.60;84.10
56478;DHT22;42382;53.210;5.772;2022-11-21T00:18:04;2.60;84.10
56478;DHT22;42382;53.210;5.772;2022-11-21T00:20:30;2.60;84.00
56478;DHT22;42382;53.210;5.772;2022-11-21T00:22:56;2.60;84.10
56478;DHT22;42382;53.210;5.772;2022-11-21T00:25:21;2.60;84.10
56478;DHT22;42382;53.210;5.772;2022-11-21T00:27:47;2.60;84.10
56478;DHT22;42382;53.210;5.772;2022-11-21T00:30:13;2.60;84.10
56478;DHT22;42382;53.210;5.772;2022-11-21T00:32:39;2.60;84.10
56478;DHT22;42382;53.210;5.772;2022-11-21T00:35:05;2.60;84.10
56478;DHT22;42382;53.210;5.772;2022-11-21T00:37:32;2.70;84.10
56478;DHT22;42382;53.210;5.772;2022-11-21T00:39:58;2.70;84.10
56478;DHT22;42382;53.210;5.772;2022-11-21T00:42:24;2.60;84.10
56478;DHT22;42382;53.210;5.772;2022-11-21T00:44:49;2.70;84.10
56478;DHT22;42382;53.210;5.772;2022-11-21T00:47:15;2.70;84.10
56478;DHT22;42382;53.210;5.772;2022-11-21T00:49:41;2.70;84.10
56478;DHT22;42382;53.210;5.772;2022-11-21T00:52:06;2.70;84.20
56478;DHT22;42382;53.210;5.772;2022-11-21T00:54:32;2.70;84.10
56478;DHT22;42382;53.210;5.772;2022-11-21T00:56:57;2.70;84.20
56478;DHT22;42382;53.210;5.772;2022-11-21T00:59:23;2.60;84.20
56478;DHT22;42382;53.210;5.772;2022-11-21T01:01:49;2.60;84.20
56478;DHT22;42382;53.210;5.772;2022-11-21T01:04:14;2.70;84.20
56478;DHT22;42382;53.210;5.772;2022-11-21T01:06:40;2.70;84.30
56478;DHT22;42382;53.210;5.772;2022-11-21T01:09:06;2.70;84.30
56478;DHT22;42382;53.210;5.772;2022-11-21T01:11:31;2.70;84.30
56478;DHT22;42382;53.210;5.772;2022-11-21T01:13:57;2.60;84.30
56478;DHT22;42382;53.210;5.772;2022-11-21T01:16:26;2.60;84.40
56478;DHT22;42382;53.210;5.772;2022-11-21T01:18:51;2.60;84.50
56478;DHT22;42382;53.210;5.772;2022-11-21T01:21:26;2.60;84.30
56478;DHT22;42382;53.210;5.772;2022-11-21T01:23:52;2.60;84.40
56478;DHT22;42382;53.210;5.772;2022-11-21T01:26:21;2.60;84.50
56478;DHT22;42382;53.210;5.772;2022-11-21T01:28:47;2.60;84.50
56478;DHT22;42382;53.210;5.772;2022-11-21T01:33:41;2.60;84.40
56478;DHT22;42382;53.210;5.772;2022-11-21T01:38:32;2.50;84.40
56478;DHT22;42382;53.210;5.772;2022-11-21T01:40:58;2.50;84.20
56478;DHT22;42382;53.210;5.772;2022-11-21T01:43:23;2.40;84.20
56478;DHT22;42382;53.210;5.772;2022-11-21T01:50:53;2.30;84.20
56478;DHT22;42382;53.210;5.772;2022-11-21T01:53:20;2.20;84.10
56478;DHT22;42382;53.210;5.772;2022-11-21T01:55:47;2.20;84.10
56478;DHT22;42382;53.210;5.772;2022-11-21T01:58:13;2.10;84.10
56478;DHT22;42382;53.210;5.772;2022-11-21T02:00:39;2.10;84.10
56478;DHT22;42382;53.210;5.772;2022-11-21T02:03:11;2.00;84.10
56478;DHT22;42382;53.210;5.772;2022-11-21T02:05:39;2.00;84.20
56478;DHT22;42382;53.210;5.772;2022-11-21T02:08:08;1.90;84.20
56478;DHT22;42382;53.210;5.772;2022-11-21T02:10:35;1.90;84.20
56478;DHT22;42382;53.210;5.772;2022-11-21T02:13:03;1.80;84.30
56478;DHT22;42382;53.210;5.772;2022-11-21T02:15:29;1.80;84.40
56478;DHT22;42382;53.210;5.772;2022-11-21T02:17:55;1.80;84.40
56478;DHT22;42382;53.210;5.772;2022-11-21T02:20:24;1.70;84.50
56478;DHT22;42382;53.210;5.772;2022-11-21T02:25:27;1.60;84.50
56478;DHT22;42382;53.210;5.772;2022-11-21T02:28:02;1.60;84.60
56478;DHT22;42382;53.210;5.772;2022-11-21T02:30:31;1.50;84.60
56478;DHT22;42382;53.210;5.772;2022-11-21T02:32:57;1.50;84.60
56478;DHT22;42382;53.210;5.772;2022-11-21T02:35:22;1.40;84.60
56478;DHT22;42382;53.210;5.772;2022-11-21T02:38:00;1.40;84.70
56478;DHT22;42382;53.210;5.772;2022-11-21T02:40:30;1.30;84.70
56478;DHT22;42382;53.210;5.772;2022-11-21T02:43:06;1.30;84.80
56478;DHT22;42382;53.210;5.772;2022-11-21T02:45:39;1.20;84.80
56478;DHT22;42382;53.210;5.772;2022-11-21T02:48:05;1.20;84.80
56478;DHT22;42382;53.210;5.772;2022-11-21T02:50:34;1.20;84.90
56478;DHT22;42382;53.210;5.772;2022-11-21T02:53:00;1.10;85.00
56478;DHT22;42382;53.210;5.772;2022-11-21T02:55:26;1.10;85.00
56478;DHT22;42382;53.210;5.772;2022-11-21T02:57:52;1.10;85.10
56478;DHT22;42382;53.210;5.772;2022-11-21T03:00:18;1.00;85.10
56478;DHT22;42382;53.210;5.772;2022-11-21T03:02:43;1.00;85.20
56478;DHT22;42382;53.210;5.772;2022-11-21T03:05:11;1.00;85.20
56478;DHT22;42382;53.210;5.772;2022-11-21T03:07:37;0.90;85.20
56478;DHT22;42382;53.210;5.772;2022-11-21T03:10:03;0.90;85.30
56478;DHT22;42382;53.210;5.772;2022-11-21T03:12:29;0.90;85.30
56478;DHT22;42382;53.210;5.772;2022-11-21T03:14:54;0.90;85.40
56478;DHT22;42382;53.210;5.772;2022-11-21T03:17:20;0.80;85.40
56478;DHT22;42382;53.210;5.772;2022-11-21T03:19:45;0.80;85.50
56478;DHT22;42382;53.210;5.772;2022-11-21T03:22:12;0.90;85.50
56478;DHT22;42382;53.210;5.772;2022-11-21T03:24:38;0.90;85.60
56478;DHT22;42382;53.210;5.772;2022-11-21T03:27:03;0.90;85.70
56478;DHT22;42382;53.210;5.772;2022-11-21T03:29:29;0.90;85.80
56478;DHT22;42382;53.210;5.772;2022-11-21T03:31:54;0.90;85.90
56478;DHT22;42382;53.210;5.772;2022-11-21T03:34:20;0.90;86.00
56478;DHT22;42382;53.210;5.772;2022-11-21T03:36:46;1.00;86.10
56478;DHT22;42382;53.210;5.772;2022-11-21T03:39:11;1.00;86.20
56478;DHT22;42382;53.210;5.772;2022-11-21T03:41:37;1.00;86.20
56478;DHT22;42382;53.210;5.772;2022-11-21T03:44:08;1.10;86.30
56478;DHT22;42382;53.210;5.772;2022-11-21T03:46:36;1.10;86.40
56478;DHT22;42382;53.210;5.772;2022-11-21T03:49:02;1.10;86.50
56478;DHT22;42382;53.210;5.772;2022-11-21T03:51:31;1.20;86.50
56478;DHT22;42382;53.210;5.772;2022-11-21T03:53:56;1.20;86.50
56478;DHT22;42382;53.210;5.772;2022-11-21T03:56:22;1.30;86.60
56478;DHT22;42382;53.210;5.772;2022-11-21T03:58:48;1.30;86.60
56478;DHT22;42382;53.210;5.772;2022-11-21T04:01:14;1.30;86.60
56478;DHT22;42382;53.210;5.772;2022-11-21T04:03:41;1.30;86.70
56478;DHT22;42382;53.210;5.772;2022-11-21T04:06:08;1.30;86.70
56478;DHT22;42382;53.210;5.772;2022-11-21T04:08:34;1.30;86.70
56478;DHT22;42382;53.210;5.772;2022-11-21T04:10:59;1.40;86.80
56478;DHT22;42382;53.210;5.772;2022-11-21T04:13:25;1.40;86.80
56478;DHT22;42382;53.210;5.772;2022-11-21T04:15:51;1.40;86.80
56478;DHT22;42382;53.210;5.772;2022-11-21T04:18:16;1.40;86.80
56478;DHT22;42382;53.210;5.772;2022-11-21T04:20:43;1.40;86.80
56478;DHT22;42382;53.210;5.772;2022-11-21T04:23:08;1.40;86.80
56478;DHT22;42382;53.210;5.772;2022-11-21T04:25:34;1.40;86.70
56478;DHT22;42382;53.210;5.772;2022-11-21T04:28:01;1.30;86.70
56478;DHT22;42382;53.210;5.772;2022-11-21T04:30:28;1.30;86.60
56478;DHT22;42382;53.210;5.772;2022-11-21T04:32:54;1.30;86.60
56478;DHT22;42382;53.210;5.772;2022-11-21T04:35:21;1.20;86.50
56478;DHT22;42382;53.210;5.772;2022-11-21T04:37:47;1.10;86.50
56478;DHT22;42382;53.210;5.772;2022-11-21T04:40:13;1.10;86.50
56478;DHT22;42382;53.210;5.772;2022-11-21T04:42:43;1.10;86.50
56478;DHT22;42382;53.210;5.772;2022-11-21T04:45:10;1.00;86.50
56478;DHT22;42382;53.210;5.772;2022-11-21T04:47:36;1.00;86.40
56478;DHT22;42382;53.210;5.772;2022-11-21T04:50:02;1.00;86.50
56478;DHT22;42382;53.210;5.772;2022-11-21T04:52:28;0.90;86.50
56478;DHT22;42382;53.210;5.772;2022-11-21T04:54:53;0.90;86.50
56478;DHT22;42382;53.210;5.772;2022-11-21T04:57:19;0.80;86.50
56478;DHT22;42382;53.210;5.772;2022-11-21T04:59:45;0.80;86.60
56478;DHT22;42382;53.210;5.772;2022-11-21T05:02:10;0.80;86.60
56478;DHT22;42382;53.210;5.772;2022-11-21T05:04:36;0.70;86.60
56478;DHT22;42382;53.210;5.772;2022-11-21T05:07:01;0.70;86.70
56478;DHT22;42382;53.210;5.772;2022-11-21T05:09:27;0.60;86.80
56478;DHT22;42382;53.210;5.772;2022-11-21T05:11:52;0.60;86.80
56478;DHT22;42382;53.210;5.772;2022-11-21T05:14:36;0.60;86.80
56478;DHT22;42382;53.210;5.772;2022-11-21T05:17:02;0.60;86.80
56478;DHT22;42382;53.210;5.772;2022-11-21T05:19:27;0.50;86.80
56478;DHT22;42382;53.210;5.772;2022-11-21T05:21:53;0.50;87.00
56478;DHT22;42382;53.210;5.772;2022-11-21T05:24:18;0.50;87.00
56478;DHT22;42382;53.210;5.772;2022-11-21T05:26:44;0.40;87.00
56478;DHT22;42382;53.210;5.772;2022-11-21T05:29:09;0.40;87.10
56478;DHT22;42382;53.210;5.772;2022-11-21T05:31:35;0.40;87.10
56478;DHT22;42382;53.210;5.772;2022-11-21T05:34:01;0.40;87.10
56478;DHT22;42382;53.210;5.772;2022-11-21T05:36:26;0.30;87.20
56478;DHT22;42382;53.210;5.772;2022-11-21T05:38:52;0.30;87.20
56478;DHT22;42382;53.210;5.772;2022-11-21T05:41:17;0.30;87.30
56478;DHT22;42382;53.210;5.772;2022-11-21T05:43:43;0.30;87.40
56478;DHT22;42382;53.210;5.772;2022-11-21T05:46:19;0.20;87.40
56478;DHT22;42382;53.210;5.772;2022-11-21T05:48:46;0.20;87.60
56478;DHT22;42382;53.210;5.772;2022-11-21T05:51:12;0.20;87.50
56478;DHT22;42382;53.210;5.772;2022-11-21T05:53:38;0.20;87.60
56478;DHT22;42382;53.210;5.772;2022-11-21T05:56:05;0.10;87.60
56478;DHT22;42382;53.210;5.772;2022-11-21T05:58:31;0.10;87.70
56478;DHT22;42382;53.210;5.772;2022-11-21T06:00:57;0.10;87.70
56478;DHT22;42382;53.210;5.772;2022-11-21T06:03:25;0.10;87.80
56478;DHT22;42382;53.210;5.772;2022-11-21T06:08:33;0.10;88.00
56478;DHT22;42382;53.210;5.772;2022-11-21T06:11:00;0.00;88.00
56478;DHT22;42382;53.210;5.772;2022-11-21T06:13:27;0.00;88.00
56478;DHT22;42382;53.210;5.772;2022-11-21T06:15:57;0.00;88.20
56478;DHT22;42382;53.210;5.772;2022-11-21T06:18:23;0.00;88.30
56478;DHT22;42382;53.210;5.772;2022-11-21T06:20:49;0.00;88.20
56478;DHT22;42382;53.210;5.772;2022-11-21T06:23:15;0.00;88.40
56478;DHT22;42382;53.210;5.772;2022-11-21T06:25:42;0.00;88.30
56478;DHT22;42382;53.210;5.772;2022-11-21T06:28:08;-3276.70;88.40
56478;DHT22;42382;53.210;5.772;2022-11-21T06:30:34;-3276.70;88.50
56478;DHT22;42382;53.210;5.772;2022-11-21T06:33:05;-3276.70;88.50
56478;DHT22;42382;53.210;5.772;2022-11-21T06:35:31;-3276.70;88.50
56478;DHT22;42382;53.210;5.772;2022-11-21T06:37:56;-3276.70;88.50
56478;DHT22;42382;53.210;5.772;2022-11-21T06:40:25;-3276.70;88.60
56478;DHT22;42382;53.210;5.772;2022-11-21T06:42:50;-3276.70;88.90
56478;DHT22;42382;53.210;5.772;2022-11-21T06:45:16;-3276.60;89.20
56478;DHT22;42382;53.210;5.772;2022-11-21T06:47:41;-3276.70;89.30
56478;DHT22;42382;53.210;5.772;2022-11-21T06:50:07;-3276.60;89.40
56478;DHT22;42382;53.210;5.772;2022-11-21T06:52:33;0.00;89.70
56478;DHT22;42382;53.210;5.772;2022-11-21T06:55:00;0.00;89.80
56478;DHT22;42382;53.210;5.772;2022-11-21T06:57:25;-3276.70;89.80
56478;DHT22;42382;53.210;5.772;2022-11-21T06:59:51;0.00;90.00
56478;DHT22;42382;53.210;5.772;2022-11-21T07:02:16;0.00;90.20
56478;DHT22;42382;53.210;5.772;2022-11-21T07:04:42;0.00;90.60
56478;DHT22;42382;53.210;5.772;2022-11-21T07:07:07;0.00;90.50
56478;DHT22;42382;53.210;5.772;2022-11-21T07:09:33;0.00;90.70
56478;DHT22;42382;53.210;5.772;2022-11-21T07:12:00;0.10;90.70
56478;DHT22;42382;53.210;5.772;2022-11-21T07:14:45;0.20;90.90
56478;DHT22;42382;53.210;5.772;2022-11-21T07:17:11;0.20;90.80
56478;DHT22;42382;53.210;5.772;2022-11-21T07:19:37;0.20;90.80
56478;DHT22;42382;53.210;5.772;2022-11-21T07:22:02;0.30;90.80
56478;DHT22;42382;53.210;5.772;2022-11-21T07:24:28;0.30;90.90
56478;DHT22;42382;53.210;5.772;2022-11-21T07:26:54;0.30;90.80
56478;DHT22;42382;53.210;5.772;2022-11-21T07:29:20;0.40;90.80
56478;DHT22;42382;53.210;5.772;2022-11-21T07:31:45;0.40;90.80
56478;DHT22;42382;53.210;5.772;2022-11-21T07:34:11;0.50;90.90
56478;DHT22;42382;53.210;5.772;2022-11-21T07:36:37;0.40;90.90
56478;DHT22;42382;53.210;5.772;2022-11-21T07:39:02;0.50;90.90
56478;DHT22;42382;53.210;5.772;2022-11-21T07:41:28;0.50;90.90
56478;DHT22;42382;53.210;5.772;2022-11-21T07:43:54;0.50;91.00
56478;DHT22;42382;53.210;5.772;2022-11-21T07:46:20;0.60;91.00
56478;DHT22;42382;53.210;5.772;2022-11-21T07:48:45;0.60;91.00
56478;DHT22;42382;53.210;5.772;2022-11-21T07:51:11;0.70;91.10
56478;DHT22;42382;53.210;5.772;2022-11-21T07:53:36;0.70;91.10
56478;DHT22;42382;53.210;5.772;2022-11-21T07:56:02;0.70;91.10
56478;DHT22;42382;53.210;5.772;2022-11-21T07:58:29;0.70;91.10
56478;DHT22;42382;53.210;5.772;2022-11-21T08:00:54;0.80;91.20
56478;DHT22;42382;53.210;5.772;2022-11-21T08:03:20;0.80;91.20
56478;DHT22;42382;53.210;5.772;2022-11-21T08:05:47;0.80;91.20
56478;DHT22;42382;53.210;5.772;2022-11-21T08:08:12;0.80;91.20
56478;DHT22;42382;53.210;5.772;2022-11-21T08:10:43;0.90;91.30
56478;DHT22;42382;53.210;5.772;2022-11-21T08:13:10;0.80;91.30
56478;DHT22;42382;53.210;5.772;2022-11-21T08:15:36;0.80;91.30
56478;DHT22;42382;53.210;5.772;2022-11-21T08:18:08;0.90;91.40
56478;DHT22;42382;53.210;5.772;2022-11-21T08:20:34;0.90;91.40
56478;DHT22;42382;53.210;5.772;2022-11-21T08:23:00;0.90;91.40
56478;DHT22;42382;53.210;5.772;2022-11-21T08:25:26;0.90;91.40
56478;DHT22;42382;53.210;5.772;2022-11-21T08:27:55;0.90;91.50
56478;DHT22;42382;53.210;5.772;2022-11-21T08:30:20;0.90;91.50
56478;DHT22;42382;53.210;5.772;2022-11-21T08:32:46;0.90;91.40
56478;DHT22;42382;53.210;5.772;2022-11-21T08:35:12;0.90;91.50
56478;DHT22;42382;53.210;5.772;2022-11-21T08:37:40;1.00;91.40
56478;DHT22;42382;53.210;5.772;2022-11-21T08:40:06;1.00;91.50
56478;DHT22;42382;53.210;5.772;2022-11-21T08:42:32;1.00;91.50
56478;DHT22;42382;53.210;5.772;2022-11-21T08:44:57;1.00;91.50
56478;DHT22;42382;53.210;5.772;2022-11-21T08:47:23;1.00;91.50
56478;DHT22;42382;53.210;5.772;2022-11-21T08:49:48;1.00;91.60
56478;DHT22;42382;53.210;5.772;2022-11-21T08:52:15;1.10;91.60
56478;DHT22;42382;53.210;5.772;2022-11-21T08:54:42;1.10;91.60
56478;DHT22;42382;53.210;5.772;2022-11-21T08:57:09;1.10;91.70
56478;DHT22;42382;53.210;5.772;2022-11-21T08:59:34;1.20;91.70
56478;DHT22;42382;53.210;5.772;2022-11-21T09:02:00;1.20;91.70
56478;DHT22;42382;53.210;5.772;2022-11-21T09:04:25;1.30;91.70
56478;DHT22;42382;53.210;5.772;2022-11-21T09:06:51;1.30;91.70
56478;DHT22;42382;53.210;5.772;2022-11-21T09:09:17;1.30;91.90
56478;DHT22;42382;53.210;5.772;2022-11-21T09:11:42;1.30;91.80
56478;DHT22;42382;53.210;5.772;2022-11-21T09:14:08;1.30;91.80
56478;DHT22;42382;53.210;5.772;2022-11-21T09:16:52;1.40;91.80
56478;DHT22;42382;53.210;5.772;2022-11-21T09:19:36;1.40;91.90
56478;DHT22;42382;53.210;5.772;2022-11-21T09:22:01;1.40;91.80
56478;DHT22;42382;53.210;5.772;2022-11-21T09:24:27;1.40;92.00
56478;DHT22;42382;53.210;5.772;2022-11-21T09:26:53;1.40;91.80
56478;DHT22;42382;53.210;5.772;2022-11-21T09:29:18;1.40;91.80
56478;DHT22;42382;53.210;5.772;2022-11-21T09:31:44;1.40;91.90
56478;DHT22;42382;53.210;5.772;2022-11-21T09:34:10;1.40;91.90
56478;DHT22;42382;53.210;5.772;2022-11-21T09:36:35;1.40;91.90
56478;DHT22;42382;53.210;5.772;2022-11-21T09:39:01;1.50;92.00
56478;DHT22;42382;53.210;5.772;2022-11-21T09:49:55;1.70;92.10
56478;DHT22;42382;53.210;5.772;2022-11-21T09:52:25;1.80;92.10
56478;DHT22;42382;53.210;5.772;2022-11-21T09:54:58;1.90;92.10
56478;DHT22;42382;53.210;5.772;2022-11-21T09:57:25;1.90;91.90
56478;DHT22;42382;53.210;5.772;2022-11-21T09:59:51;1.80;91.80
56478;DHT22;42382;53.210;5.772;2022-11-21T10:02:19;1.90;91.90
56478;DHT22;42382;53.210;5.772;2022-11-21T10:04:46;2.00;91.90
56478;DHT22;42382;53.210;5.772;2022-11-21T10:07:18;2.10;92.00
56478;DHT22;42382;53.210;5.772;2022-11-21T10:13:05;2.10;91.70
56478;DHT22;42382;53.210;5.772;2022-11-21T10:16:38;2.10;91.80
56478;DHT22;42382;53.210;5.772;2022-11-21T10:21:47;2.00;91.50
56478;DHT22;42382;53.210;5.772;2022-11-21T10:24:33;2.00;91.60
56478;DHT22;42382;53.210;5.772;2022-11-21T10:27:22;2.00;91.50
56478;DHT22;42382;53.210;5.772;2022-11-21T10:30:00;2.00;91.60
56478;DHT22;42382;53.210;5.772;2022-11-21T10:32:30;2.10;91.50
56478;DHT22;42382;53.210;5.772;2022-11-21T10:35:45;2.10;91.50
56478;DHT22;42382;53.210;5.772;2022-11-21T10:38:16;2.20;91.60
56478;DHT22;42382;53.210;5.772;2022-11-21T10:40:45;2.30;91.60
56478;DHT22;42382;53.210;5.772;2022-11-21T10:43:45;2.30;91.60
56478;DHT22;42382;53.210;5.772;2022-11-21T10:46:31;2.40;91.30
56478;DHT22;42382;53.210;5.772;2022-11-21T10:49:03;2.40;91.30
56478;DHT22;42382;53.210;5.772;2022-11-21T10:54:09;2.50;91.10
56478;DHT22;42382;53.210;5.772;2022-11-21T10:56:57;2.50;91.10
56478;DHT22;42382;53.210;5.772;2022-11-21T10:59:26;2.50;91.10
56478;DHT22;42382;53.210;5.772;2022-11-21T11:02:01;2.50;91.00
56478;DHT22;42382;53.210;5.772;2022-11-21T11:04:29;2.60;91.00
56478;DHT22;42382;53.210;5.772;2022-11-21T11:06:55;2.70;91.00
56478;DHT22;42382;53.210;5.772;2022-11-21T11:11:47;2.70;90.80
56478;DHT22;42382;53.210;5.772;2022-11-21T11:14:13;2.70;90.80
56478;DHT22;42382;53.210;5.772;2022-11-21T11:16:45;2.70;90.80
56478;DHT22;42382;53.210;5.772;2022-11-21T11:24:25;2.80;90.90
56478;DHT22;42382;53.210;5.772;2022-11-21T11:27:01;2.90;90.90
56478;DHT22;42382;53.210;5.772;2022-11-21T11:29:29;3.00;90.90
56478;DHT22;42382;53.210;5.772;2022-11-21T11:34:39;3.10;91.00
56478;DHT22;42382;53.210;5.772;2022-11-21T11:37:19;3.10;91.00
56478;DHT22;42382;53.210;5.772;2022-11-21T11:40:16;3.20;91.00
56478;DHT22;42382;53.210;5.772;2022-11-21T11:45:59;3.40;91.00
56478;DHT22;42382;53.210;5.772;2022-11-21T11:48:47;3.40;91.00
56478;DHT22;42382;53.210;5.772;2022-11-21T11:51:22;3.50;90.90
56478;DHT22;42382;53.210;5.772;2022-11-21T11:53:51;3.60;90.90
56478;DHT22;42382;53.210;5.772;2022-11-21T11:58:47;3.70;90.70
56478;DHT22;42382;53.210;5.772;2022-11-21T12:01:49;3.80;90.80
56478;DHT22;42382;53.210;5.772;2022-11-21T12:04:21;3.90;90.60
56478;DHT22;42382;53.210;5.772;2022-11-21T12:06:56;3.90;90.50
56478;DHT22;42382;53.210;5.772;2022-11-21T12:12:12;4.00;90.50
56478;DHT22;42382;53.210;5.772;2022-11-21T12:15:09;4.00;90.40
56478;DHT22;42382;53.210;5.772;2022-11-21T12:20:52;4.20;90.30
56478;DHT22;42382;53.210;5.772;2022-11-21T12:23:19;4.30;90.30
56478;DHT22;42382;53.210;5.772;2022-11-21T15:00:22;4.30;90.30
56478;DHT22;42382;53.210;5.772;2022-11-21T15:02:55;3.80;92.10
56478;DHT22;42382;53.210;5.772;2022-11-21T15:05:28;3.80;92.20
56478;DHT22;42382;53.210;5.772;2022-11-21T15:07:54;3.70;92.10
56478;DHT22;42382;53.210;5.772;2022-11-21T15:10:23;3.80;92.30
56478;DHT22;42382;53.210;5.772;2022-11-21T15:13:02;3.80;92.30
56478;DHT22;42382;53.210;5.772;2022-11-21T15:15:30;3.70;92.40
56478;DHT22;42382;53.210;5.772;2022-11-21T15:17:58;3.70;92.50
56478;DHT22;42382;53.210;5.772;2022-11-21T15:20:26;3.80;92.50
56478;DHT22;42382;53.210;5.772;2022-11-21T15:22:59;3.70;92.50
56478;DHT22;42382;53.210;5.772;2022-11-21T15:25:27;3.80;92.70
56478;DHT22;42382;53.210;5.772;2022-11-21T15:30:28;3.80;92.60
56478;DHT22;42382;53.210;5.772;2022-11-21T15:47:59;3.70;92.80
56478;DHT22;42382;53.210;5.772;2022-11-21T15:50:25;3.80;92.90
56478;DHT22;42382;53.210;5.772;2022-11-21T15:52:51;3.80;93.10
56478;DHT22;42382;53.210;5.772;2022-11-21T15:55:20;3.80;93.20
56478;DHT22;42382;53.210;5.772;2022-11-21T15:57:45;3.80;93.00
56478;DHT22;42382;53.210;5.772;2022-11-21T16:00:11;3.80;93.20
56478;DHT22;42382;53.210;5.772;2022-11-21T16:02:37;3.80;93.10
56478;DHT22;42382;53.210;5.772;2022-11-21T16:05:03;3.80;93.20
56478;DHT22;42382;53.210;5.772;2022-11-21T16:07:29;3.90;93.40
56478;DHT22;42382;53.210;5.772;2022-11-21T16:09:55;3.80;93.20
56478;DHT22;42382;53.210;5.772;2022-11-21T16:12:20;3.80;93.20
56478;DHT22;42382;53.210;5.772;2022-11-21T16:14:46;3.80;93.50
56478;DHT22;42382;53.210;5.772;2022-11-21T16:17:12;3.80;93.30
56478;DHT22;42382;53.210;5.772;2022-11-21T16:19:38;3.80;93.50
56478;DHT22;42382;53.210;5.772;2022-11-21T16:22:04;3.80;93.40
56478;DHT22;42382;53.210;5.772;2022-11-21T16:24:29;3.80;93.50
56478;DHT22;42382;53.210;5.772;2022-11-21T16:26:55;3.80;93.50
56478;DHT22;42382;53.210;5.772;2022-11-21T16:29:21;3.80;93.50
56478;DHT22;42382;53.210;5.772;2022-11-21T16:31:49;3.90;93.70
56478;DHT22;42382;53.210;5.772;2022-11-21T16:34:17;3.80;93.60
56478;DHT22;42382;53.210;5.772;2022-11-21T16:36:43;3.80;93.60
56478;DHT22;42382;53.210;5.772;2022-11-21T16:39:09;3.90;93.70
56478;DHT22;42382;53.210;5.772;2022-11-21T16:41:34;3.80;93.70
56478;DHT22;42382;53.210;5.772;2022-11-21T16:44:00;3.90;93.70
56478;DHT22;42382;53.210;5.772;2022-11-21T16:46:25;3.90;93.80
56478;DHT22;42382;53.210;5.772;2022-11-21T16:48:59;3.90;93.70
56478;DHT22;42382;53.210;5.772;2022-11-21T16:51:25;3.90;93.80
56478;DHT22;42382;53.210;5.772;2022-11-21T16:53:50;3.90;93.70
56478;DHT22;42382;53.210;5.772;2022-11-21T16:56:16;3.90;93.90
56478;DHT22;42382;53.210;5.772;2022-11-21T16:58:42;3.90;93.80
56478;DHT22;42382;53.210;5.772;2022-11-21T17:01:24;3.90;93.90
56478;DHT22;42382;53.210;5.772;2022-11-21T17:03:51;3.90;94.00
56478;DHT22;42382;53.210;5.772;2022-11-21T17:06:22;3.90;93.90
56478;DHT22;42382;53.210;5.772;2022-11-21T17:08:49;3.90;94.00
56478;DHT22;42382;53.210;5.772;2022-11-21T17:11:28;4.00;94.00
56478;DHT22;42382;53.210;5.772;2022-11-21T17:13:58;4.00;94.10
56478;DHT22;42382;53.210;5.772;2022-11-21T17:16:24;4.00;94.00
56478;DHT22;42382;53.210;5.772;2022-11-21T17:18:54;3.90;93.90
56478;DHT22;42382;53.210;5.772;2022-11-21T17:21:20;4.00;93.90
56478;DHT22;42382;53.210;5.772;2022-11-21T17:23:46;4.00;94.00
56478;DHT22;42382;53.210;5.772;2022-11-21T17:26:14;4.00;94.00
56478;DHT22;42382;53.210;5.772;2022-11-21T17:28:40;4.00;94.00
56478;DHT22;42382;53.210;5.772;2022-11-21T17:31:08;4.10;94.10
56478;DHT22;42382;53.210;5.772;2022-11-21T17:33:33;4.10;94.00
56478;DHT22;42382;53.210;5.772;2022-11-21T17:36:04;4.10;94.20
56478;DHT22;42382;53.210;5.772;2022-11-21T17:38:30;4.00;94.10
56478;DHT22;42382;53.210;5.772;2022-11-21T17:41:07;4.10;94.10
56478;DHT22;42382;53.210;5.772;2022-11-21T17:43:34;4.10;94.20
56478;DHT22;42382;53.210;5.772;2022-11-21T17:46:02;4.10;94.10
56478;DHT22;42382;53.210;5.772;2022-11-21T17:48:28;4.20;94.10
56478;DHT22;42382;53.210;5.772;2022-11-21T17:51:01;4.20;94.10
56478;DHT22;42382;53.210;5.772;2022-11-21T17:53:36;4.20;94.20
56478;DHT22;42382;53.210;5.772;2022-11-21T17:56:03;4.20;94.10
56478;DHT22;42382;53.210;5.772;2022-11-21T17:58:30;4.30;94.20
56478;DHT22;42382;53.210;5.772;2022-11-21T18:00:57;4.20;94.10
56478;DHT22;42382;53.210;5.772;2022-11-21T18:03:24;4.30;94.20
56478;DHT22;42382;53.210;5.772;2022-11-21T18:06:05;4.40;94.30
56478;DHT22;42382;53.210;5.772;2022-11-21T18:08:33;4.30;94.10
56478;DHT22;42382;53.210;5.772;2022-11-21T18:11:00;4.30;94.10
56478;DHT22;42382;53.210;5.772;2022-11-21T18:13:26;4.40;94.10
56478;DHT22;42382;53.210;5.772;2022-11-21T18:15:52;4.40;94.10
56478;DHT22;42382;53.210;5.772;2022-11-21T18:18:18;4.40;94.10
56478;DHT22;42382;53.210;5.772;2022-11-21T18:20:43;4.40;94.00
56478;DHT22;42382;53.210;5.772;2022-11-21T18:23:09;4.40;94.10
56478;DHT22;42382;53.210;5.772;2022-11-21T18:25:38;4.40;94.10
56478;DHT22;42382;53.210;5.772;2022-11-21T18:28:04;4.40;94.00
56478;DHT22;42382;53.210;5.772;2022-11-21T18:30:30;4.50;94.00
56478;DHT22;42382;53.210;5.772;2022-11-21T18:32:56;4.50;93.90
56478;DHT22;42382;53.210;5.772;2022-11-21T18:35:22;4.50;94.00
56478;DHT22;42382;53.210;5.772;2022-11-21T18:37:47;4.50;93.90
56478;DHT22;42382;53.210;5.772;2022-11-21T18:40:13;4.60;93.80
56478;DHT22;42382;53.210;5.772;2022-11-21T18:42:38;4.50;93.90
56478;DHT22;42382;53.210;5.772;2022-11-21T18:45:05;4.50;93.90
56478;DHT22;42382;53.210;5.772;2022-11-21T18:47:31;4.60;93.90
56478;DHT22;42382;53.210;5.772;2022-11-21T18:49:56;4.50;93.80
56478;DHT22;42382;53.210;5.772;2022-11-21T18:52:23;4.50;93.90
56478;DHT22;42382;53.210;5.772;2022-11-21T18:54:48;4.60;93.90
56478;DHT22;42382;53.210;5.772;2022-11-21T18:57:14;4.50;93.80
56478;DHT22;42382;53.210;5.772;2022-11-21T18:59:39;4.60;93.90
56478;DHT22;42382;53.210;5.772;2022-11-21T19:02:05;4.60;93.80
56478;DHT22;42382;53.210;5.772;2022-11-21T19:04:31;4.60;93.90
56478;DHT22;42382;53.210;5.772;2022-11-21T19:06:56;4.60;93.80
56478;DHT22;42382;53.210;5.772;2022-11-21T19:09:22;4.60;93.70
56478;DHT22;42382;53.210;5.772;2022-11-21T19:11:47;4.60;93.60
56478;DHT22;42382;53.210;5.772;2022-11-21T19:14:13;4.60;93.60
56478;DHT22;42382;53.210;5.772;2022-11-21T19:16:38;4.60;93.70
56478;DHT22;42382;53.210;5.772;2022-11-21T19:19:05;4.60;93.70
56478;DHT22;42382;53.210;5.772;2022-11-21T19:21:34;4.70;93.60
56478;DHT22;42382;53.210;5.772;2022-11-21T19:24:00;4.60;93.60
56478;DHT22;42382;53.210;5.772;2022-11-21T19:26:26;4.60;93.70
56478;DHT22;42382;53.210;5.772;2022-11-21T19:28:53;4.60;93.60
56478;DHT22;42382;53.210;5.772;2022-11-21T19:31:19;4.60;93.60
56478;DHT22;42382;53.210;5.772;2022-11-21T19:33:45;4.60;93.50
56478;DHT22;42382;53.210;5.772;2022-11-21T19:36:16;4.60;93.50